Nearby METAR Reports

 

ESTA - Ängelholm, Sweden
Distance from station: SSV 17km
Uppdaterad: 2024-02-25 19:50
Övervägande molnigt
Övervägande molnigt
 Vind från SSO
Vind: SSO 9 km/h
Temperatur: 5°C
Wind Chill: 3°C
Daggpunkt: 4°C
Luftfuktighet: 93%
Barometer: 1004 hPa
Clouds: Övervägande molnigt
Visibility: 10 km
Cloud details: Delvis molnigt 762 m
Övervägande molnigt 975 m
2024/02/25 18:50 ESTA 251850Z 16005KT 9999 SCT025 BKN032 05/04 Q1004
ESMT - Halmstad, Sweden
Distance from station: N 26km
Uppdaterad: 2024-02-25 19:50
Drizzle, Delvis molnigt
Drizzle, Delvis molnigt
 Vind från SO
Vind: SO 15 km/h
Temperatur: 5°C
Wind Chill: 2°C
Daggpunkt: 2°C
Luftfuktighet: 81%
Barometer: 1004 hPa
Summering: Drizzle
Clouds: Delvis molnigt
Visibility: 10 km
Cloud details: Few Clouds 671 m
Delvis molnigt 853 m
2024/02/25 18:50 ESMT 251850Z AUTO 14008KT 9999 DZ FEW022/// SCT028/// 05/02 Q1004
 
EKCH - Copenhagen/Kastrup, Denmark
Distance from station: S 92km
Uppdaterad: 2024-02-25 19:50
Regn, Övervägande molnigt
Regn, Övervägande molnigt
 Vind från OSO
Vind: OSO 13 km/h
Temperatur: 4°C
Wind Chill: 1°C
Daggpunkt: 3°C
Luftfuktighet: 93%
Barometer: 1004 hPa
Summering: Regn
Clouds: Övervägande molnigt
Visibility: 10 km
Cloud details: Delvis molnigt 762 m
Övervägande molnigt 1219 m
2024/02/25 18:50 EKCH 251850Z 12007KT 9999 RA SCT025 BKN040 04/03 Q1004 NOSIG
ESMK - Kristianstad/Everöd, Sweden
Distance from station: SO 93km
Uppdaterad: 2024-02-25 19:50
Klart
Klart
 Vind från varies
Vind: varies 6 km/h
Temperatur: 1°C
Daggpunkt: 1°C
Luftfuktighet: 100%
Barometer: 1005 hPa
Clouds: Klart
Visibility: 6 km
2024/02/25 18:50 ESMK 251850Z AUTO VRB03KT 6000 NCD 01/01 Q1005
 
ESMS - Malmö/Sturup, Sweden
Distance from station: SSO 104km
Uppdaterad: 2024-02-25 19:50
Lätt regn, Övervägande molnigt
Lätt regn, Övervägande molnigt
 Vind från SO
Vind: SO 7 km/h
Temperatur: 4°C
Wind Chill: 2°C
Daggpunkt: 3°C
Luftfuktighet: 93%
Barometer: 1004 hPa
Summering: Lätt regn
Clouds: Övervägande molnigt
Visibility: 10 km
Cloud details: Few Clouds 457 m
Övervägande molnigt 762 m
2024/02/25 18:50 ESMS 251850Z 14004KT 9999 -RA FEW015 BKN025 04/03 Q1004
ESMX - Växjö/Kronoberg, Sweden
Distance from station: ONO 124km
Uppdaterad: 2024-02-25 19:50
Övervägande molnigt
Övervägande molnigt
 Vind från varies
Vind: varies 6 km/h
Temperatur: 3°C
Daggpunkt: 1°C
Luftfuktighet: 87%
Barometer: 1005 hPa
Clouds: Övervägande molnigt
Visibility: 10 km
Cloud details: Övervägande molnigt 1859 m
2024/02/25 18:50 ESMX 251850Z AUTO VRB03KT 9999 BKN061/// 03/01 Q1005
 
EKAH - Tirstrup, Denmark
Distance from station: V 141km
Uppdaterad: 2024-02-25 19:50
Lätt regn, Övervägande molnigt
Lätt regn, Övervägande molnigt
 Vind från SSO
Vind: SSO 7 km/h
Temperatur: 5°C
Wind Chill: 3°C
Daggpunkt: 4°C
Luftfuktighet: 93%
Barometer: 1003 hPa
Summering: Lätt regn
Clouds: Övervägande molnigt
Visibility: 10 km
Cloud details: Delvis molnigt 213 m
Övervägande molnigt 579 m
2024/02/25 18:50 EKAH 251850Z AUTO 16004KT 120V190 9999 -RA SCT007/// BKN019/// 05/04 Q1003
ESGG - Göteborg/Landvetter, Sweden
Distance from station: NNV 142km
Uppdaterad: 2024-02-25 19:50
Lätt regn, Övervägande molnigt
Lätt regn, Övervägande molnigt
 Vind från OSO
Vind: OSO 13 km/h
Temperatur: 3°C
Wind Chill: -1°C
Daggpunkt: 2°C
Luftfuktighet: 93%
Barometer: 1003 hPa
Summering: Lätt regn
Clouds: Övervägande molnigt
Visibility: 9 km
Cloud details: Övervägande molnigt 762 m
2024/02/25 18:50 ESGG 251850Z 11007KT 9000 -RA BKN025 03/02 Q1003
 
ESDF - Ronneby, Sweden
Distance from station: O 147km
Uppdaterad: 2024-02-25 19:50
Klart
Klart
 Vind från O
Vind: O 9 km/h
Temperatur: 2°C
Wind Chill: -1°C
Daggpunkt: 1°C
Luftfuktighet: 93%
Barometer: 1005 hPa
Summering: Klart
Visibility: greater than 10 km
2024/02/25 18:50 ESDF 251850Z 09005KT CAVOK 02/01 Q1005
ESGJ - Jönköping Airport, Sweden
Distance from station: NNO 164km
Uppdaterad: 2024-02-25 19:50
Few Clouds
Few Clouds
 Vind från OSO
Vind: OSO 7 km/h
Temperatur: 2°C
Wind Chill: 0°C
Daggpunkt: 1°C
Luftfuktighet: 93%
Barometer: 1004 hPa
Clouds: Few Clouds
Visibility: 10 km
Cloud details: Few Clouds 884 m
2024/02/25 18:50 ESGJ 251850Z 12004KT 9999 FEW029 02/01 Q1004
 
EKOD - Odense/Beldringe, Denmark
Distance from station: VSV 193km
Uppdaterad: 2024-02-25 14:50
NOT Current
Lätt regn, Showers, Övervägande molnigt
Lätt regn, Showers, Övervägande molnigt
 Vind från S
Vind: S 15 km/h
Temperatur: 5°C
Wind Chill: 2°C
Daggpunkt: 4°C
Luftfuktighet: 93%
Barometer: 1002 hPa
Summering: Lätt regn, Showers
Clouds: Övervägande molnigt
Visibility: 10 km
Cloud details: Övervägande molnigt 305 m
2024/02/25 13:50 EKOD 251350Z 17008KT 130V200 9999 -SHRA BKN010 05/04 Q1002
EKYT - AAlborg, Denmark
Distance from station: VNV 199km
Uppdaterad: 2024-02-25 19:50
Genommulet
Genommulet
 Vind från NO
Vind: NO 6 km/h
Temperatur: 3°C
Daggpunkt: 3°C
Luftfuktighet: 100%
Barometer: 1003 hPa
Clouds: Genommulet
Visibility: 10 km
Cloud details: Genommulet 335 m
2024/02/25 18:50 EKYT 251850Z AUTO 05003KT 9999 OVC011/// 03/03 Q1003
 
ESMQ - Kalmar, Sweden
Distance from station: O 211km
Uppdaterad: 2024-02-25 19:50
Few Clouds
Few Clouds
 Vind från OSO
Vind: OSO 7 km/h
Temperatur: 3°C
Wind Chill: 1°C
Daggpunkt: 3°C
Luftfuktighet: 100%
Barometer: 1006 hPa
Clouds: Few Clouds
Visibility: 10 km
Cloud details: Few Clouds 2652 m
2024/02/25 18:50 ESMQ 251850Z AUTO 11004KT 080V150 9999 FEW087/// 03/03 Q1006